createdAt,value
2018-03-23T00:00:28.097Z,1008.92
2018-03-23T00:01:28.337Z,1008.91
2018-03-23T00:02:28.241Z,1008.88
2018-03-23T00:03:28.297Z,1008.91
2018-03-23T00:04:28.377Z,1008.89
2018-03-23T00:05:28.421Z,1008.89
2018-03-23T00:06:28.502Z,1008.85
2018-03-23T00:07:28.550Z,1008.87
2018-03-23T00:08:28.589Z,1008.87
2018-03-23T00:09:28.694Z,1008.85
2018-03-23T00:10:28.707Z,1008.82
2018-03-23T00:11:28.826Z,1008.83
2018-03-23T00:12:28.845Z,1008.84
2018-03-23T00:13:28.910Z,1008.82
2018-03-23T00:14:28.973Z,1008.80
2018-03-23T00:15:29.037Z,1008.80
2018-03-23T00:16:29.122Z,1008.81
2018-03-23T00:17:29.165Z,1008.78
2018-03-23T00:18:29.197Z,1008.80
2018-03-23T00:19:29.281Z,1008.77
2018-03-23T00:20:29.298Z,1008.77
2018-03-23T00:21:29.682Z,1008.76
2018-03-23T00:22:29.457Z,1008.81
2018-03-23T00:23:29.534Z,1008.75
2018-03-23T00:24:29.570Z,1008.75
2018-03-23T00:25:29.606Z,1008.75
2018-03-23T00:26:29.706Z,1008.73
2018-03-23T00:27:29.762Z,1008.71
2018-03-23T00:28:29.811Z,1008.73
2018-03-23T00:29:29.862Z,1008.72
2018-03-23T00:30:29.906Z,1008.68
2018-03-23T00:31:30.019Z,1008.69
2018-03-23T00:32:30.066Z,1008.70
2018-03-23T00:33:30.134Z,1008.67
2018-03-23T00:34:30.163Z,1008.70
2018-03-23T00:35:30.226Z,1008.67
2018-03-23T00:36:30.427Z,1008.69
2018-03-23T00:37:30.379Z,1008.68
2018-03-23T00:38:30.394Z,1008.66
2018-03-23T00:39:30.450Z,1008.65
2018-03-23T00:40:30.532Z,1008.64
2018-03-23T00:41:30.611Z,1008.65
2018-03-23T00:42:30.658Z,1008.65
2018-03-23T00:43:30.722Z,1008.64
2018-03-23T00:44:30.758Z,1008.63
2018-03-23T00:45:30.823Z,1008.64
2018-03-23T00:46:30.887Z,1008.66
2018-03-23T00:47:30.959Z,1008.66
2018-03-23T00:48:31.011Z,1008.63
2018-03-23T00:49:31.064Z,1008.62
2018-03-23T00:50:31.123Z,1008.60
2018-03-23T00:51:31.223Z,1008.60
2018-03-23T00:52:31.263Z,1008.62
2018-03-23T00:53:31.363Z,1008.60
2018-03-23T00:54:31.363Z,1008.56
2018-03-23T00:55:31.443Z,1008.54
2018-03-23T00:56:31.511Z,1008.52
2018-03-23T00:57:31.571Z,1008.54
2018-03-23T00:58:31.635Z,1008.56
2018-03-23T00:59:31.728Z,1008.55
2018-03-23T01:00:31.724Z,1008.55
2018-03-23T01:01:31.827Z,1008.52
2018-03-23T01:02:31.864Z,1008.54
2018-03-23T01:03:31.927Z,1008.51
2018-03-23T01:04:31.983Z,1008.51
2018-03-23T01:05:32.044Z,1008.50
2018-03-23T01:06:32.159Z,1008.47
2018-03-23T01:07:32.156Z,1008.46
2018-03-23T01:08:32.236Z,1008.44
2018-03-23T01:09:32.280Z,1008.49
2018-03-23T01:10:32.352Z,1008.45
2018-03-23T01:11:32.427Z,1008.45
2018-03-23T01:12:32.476Z,1008.43
2018-03-23T01:13:32.540Z,1008.40
2018-03-23T01:14:32.632Z,1008.37
2018-03-23T01:15:32.664Z,1008.38
2018-03-23T01:16:32.744Z,1008.36
2018-03-23T01:17:32.787Z,1008.35
2018-03-23T01:18:32.836Z,1008.36
2018-03-23T01:19:32.888Z,1008.32
2018-03-23T01:20:32.972Z,1008.32
2018-03-23T01:21:33.020Z,1008.30
2018-03-23T01:22:33.088Z,1008.28
2018-03-23T01:23:33.136Z,1008.28
2018-03-23T01:24:33.184Z,1008.30
2018-03-23T01:25:33.256Z,1008.25
2018-03-23T01:26:33.645Z,1008.25
2018-03-23T01:27:33.381Z,1008.29
2018-03-23T01:28:33.436Z,1008.31
2018-03-23T01:29:33.501Z,1008.22
2018-03-23T01:30:33.561Z,1008.21
2018-03-23T01:31:33.616Z,1008.21
2018-03-23T01:32:33.988Z,1008.17
2018-03-23T01:33:33.732Z,1008.20
2018-03-23T01:34:33.820Z,1008.20
2018-03-23T01:35:33.865Z,1008.19
2018-03-23T01:36:33.986Z,1008.14
2018-03-23T01:37:34.004Z,1008.16
2018-03-23T01:38:34.045Z,1008.11
2018-03-23T01:39:34.113Z,1008.09
2018-03-23T01:40:34.161Z,1008.09
2018-03-23T01:41:34.221Z,1008.07
2018-03-23T01:42:34.401Z,1008.06
2018-03-23T01:43:34.344Z,1008.08
2018-03-23T01:44:34.409Z,1008.05
2018-03-23T01:45:34.464Z,1008.03
2018-03-23T01:46:34.533Z,1008.01
2018-03-23T01:47:34.601Z,1008.06
2018-03-23T01:48:34.657Z,1008.02
2018-03-23T01:49:34.713Z,1008.02
2018-03-23T01:50:34.778Z,1008.02
2018-03-23T01:51:34.833Z,1007.98
2018-03-23T01:52:34.893Z,1008.02
2018-03-23T01:53:34.966Z,1008.00
2018-03-23T01:54:35.015Z,1008.02
2018-03-23T01:55:35.077Z,1007.97
2018-03-23T01:56:35.134Z,1007.97
2018-03-23T01:57:35.214Z,1007.96
2018-03-23T01:58:35.253Z,1007.95
2018-03-23T01:59:35.314Z,1007.93
2018-03-23T02:00:35.378Z,1007.94
2018-03-23T02:01:35.446Z,1007.93
2018-03-23T02:02:35.513Z,1007.93
2018-03-23T02:03:35.572Z,1007.89
2018-03-23T02:04:35.626Z,1007.90
2018-03-23T02:05:35.685Z,1007.85
2018-03-23T02:06:35.760Z,1007.89
2018-03-23T02:07:35.814Z,1007.86
2018-03-23T02:08:35.869Z,1007.87
2018-03-23T02:09:35.931Z,1007.88
2018-03-23T02:10:35.986Z,1007.85
2018-03-23T02:11:36.046Z,1007.86
2018-03-23T02:12:36.266Z,1007.83
2018-03-23T02:13:36.174Z,1007.81
2018-03-23T02:14:36.234Z,1007.79
2018-03-23T02:15:36.290Z,1007.79
2018-03-23T02:16:36.350Z,1007.74
2018-03-23T02:17:36.418Z,1007.75
2018-03-23T02:18:36.483Z,1007.74
2018-03-23T02:19:36.542Z,1007.72
2018-03-23T02:20:36.594Z,1007.67
2018-03-23T02:21:36.666Z,1007.69
2018-03-23T02:22:36.727Z,1007.68
2018-03-23T02:23:36.787Z,1007.68
2018-03-23T02:24:36.842Z,1007.68
2018-03-23T02:25:36.898Z,1007.61
2018-03-23T02:26:36.958Z,1007.65
2018-03-23T02:27:37.027Z,1007.60
2018-03-23T02:28:37.091Z,1007.60
2018-03-23T02:29:37.142Z,1007.58
2018-03-23T02:30:37.203Z,1007.57
2018-03-23T02:31:37.267Z,1007.56
2018-03-23T02:32:37.369Z,1007.56
2018-03-23T02:33:37.399Z,1007.54
2018-03-23T02:34:37.447Z,1007.55
2018-03-23T02:35:37.507Z,1007.56
2018-03-23T02:36:37.586Z,1007.52
2018-03-23T02:37:37.644Z,1007.52
2018-03-23T02:38:37.705Z,1007.52
2018-03-23T02:39:37.755Z,1007.49
2018-03-23T02:40:37.818Z,1007.48
2018-03-23T02:41:37.875Z,1007.49
2018-03-23T02:42:37.947Z,1007.44
2018-03-23T02:43:38.007Z,1007.48
2018-03-23T02:44:39.867Z,1007.49
2018-03-23T02:45:38.131Z,1007.48
2018-03-23T02:46:38.188Z,1007.45
2018-03-23T02:47:38.408Z,1007.44
2018-03-23T02:48:38.311Z,1007.44
2018-03-23T02:49:38.368Z,1007.45
2018-03-23T02:50:38.424Z,1007.42
2018-03-23T02:51:38.491Z,1007.41
2018-03-23T02:52:38.555Z,1007.43
2018-03-23T02:53:38.617Z,1007.42
2018-03-23T02:54:38.678Z,1007.42
2018-03-23T02:55:38.736Z,1007.43
2018-03-23T02:56:38.797Z,1007.41
2018-03-23T02:57:38.861Z,1007.42
2018-03-23T02:58:38.919Z,1007.42
2018-03-23T02:59:38.973Z,1007.42
2018-03-23T03:00:39.032Z,1007.39
2018-03-23T03:01:39.100Z,1007.42
2018-03-23T03:02:39.264Z,1007.38
2018-03-23T03:03:39.216Z,1007.38
2018-03-23T03:04:39.288Z,1007.38
2018-03-23T03:05:39.341Z,1007.40
2018-03-23T03:06:39.405Z,1007.36
2018-03-23T03:07:39.474Z,1007.32
2018-03-23T03:08:39.532Z,1007.28
2018-03-23T03:09:39.581Z,1007.29
2018-03-23T03:10:39.641Z,1007.28
2018-03-23T03:11:39.712Z,1007.29
2018-03-23T03:12:39.776Z,1007.28
2018-03-23T03:13:40.204Z,1007.27
2018-03-23T03:14:39.920Z,1007.25
2018-03-23T03:15:39.958Z,1007.22
2018-03-23T03:16:40.015Z,1007.23
2018-03-23T03:17:40.368Z,1007.25
2018-03-23T03:18:40.132Z,1007.19
2018-03-23T03:19:40.198Z,1007.19
2018-03-23T03:20:40.257Z,1007.18
2018-03-23T03:21:40.317Z,1007.16
2018-03-23T03:22:40.397Z,1007.15
2018-03-23T03:23:40.453Z,1007.15
2018-03-23T03:24:40.492Z,1007.15
2018-03-23T03:25:40.557Z,1007.10
2018-03-23T03:26:40.625Z,1007.12
2018-03-23T03:27:40.677Z,1007.14
2018-03-23T03:28:40.745Z,1007.12
2018-03-23T03:29:40.817Z,1007.12
2018-03-23T03:30:40.863Z,1007.06
2018-03-23T03:31:40.925Z,1007.09
2018-03-23T03:32:40.989Z,1007.06
2018-03-23T03:33:41.049Z,1007.02
2018-03-23T03:34:41.121Z,1007.05
2018-03-23T03:35:41.165Z,1007.01
2018-03-23T03:36:41.230Z,1007.00
2018-03-23T03:37:41.300Z,1006.96
2018-03-23T03:38:41.352Z,1007.00
2018-03-23T03:39:41.418Z,1007.01
2018-03-23T03:40:41.466Z,1006.97
2018-03-23T03:41:41.526Z,1007.01
2018-03-23T03:42:41.589Z,1006.97
2018-03-23T03:43:41.657Z,1006.99
2018-03-23T03:44:41.720Z,1006.98
2018-03-23T03:45:41.774Z,1006.95
2018-03-23T03:46:41.834Z,1006.96
2018-03-23T03:47:41.898Z,1006.94
2018-03-23T03:48:41.962Z,1006.92
2018-03-23T03:49:42.026Z,1006.94
2018-03-23T03:50:42.082Z,1006.95
2018-03-23T03:51:42.142Z,1006.96
2018-03-23T03:52:42.202Z,1006.94
2018-03-23T03:53:42.254Z,1006.95
2018-03-23T03:54:42.566Z,1006.91
2018-03-23T03:55:42.378Z,1006.91
2018-03-23T03:56:42.442Z,1006.95
2018-03-23T03:57:42.498Z,1006.92
2018-03-23T03:58:42.566Z,1006.96
2018-03-23T03:59:42.626Z,1006.90
2018-03-23T04:00:42.686Z,1006.92
2018-03-23T04:01:42.738Z,1006.90
2018-03-23T04:02:42.802Z,1006.91
2018-03-23T04:03:42.862Z,1006.91
2018-03-23T04:04:42.926Z,1006.87
2018-03-23T04:05:43.001Z,1006.87
2018-03-23T04:06:43.047Z,1006.88
2018-03-23T04:07:43.102Z,1006.87
2018-03-23T04:08:43.170Z,1006.89
2018-03-23T04:09:43.235Z,1006.87
2018-03-23T04:10:43.311Z,1006.88
2018-03-23T04:11:43.347Z,1006.85
2018-03-23T04:12:43.407Z,1006.89
2018-03-23T04:13:43.466Z,1006.86
2018-03-23T04:14:43.528Z,1006.83
2018-03-23T04:15:43.595Z,1006.79
2018-03-23T04:16:43.658Z,1006.84
2018-03-23T04:17:43.715Z,1006.82
2018-03-23T04:18:43.777Z,1006.82
2018-03-23T04:19:43.897Z,1006.78
2018-03-23T04:20:43.903Z,1006.81
2018-03-23T04:21:43.963Z,1006.79
2018-03-23T04:22:44.012Z,1006.83
2018-03-23T04:23:44.078Z,1006.84
2018-03-23T04:24:44.140Z,1006.90
2018-03-23T04:25:44.199Z,1006.90
2018-03-23T04:26:44.276Z,1006.87
2018-03-23T04:27:44.316Z,1006.86
2018-03-23T04:28:44.383Z,1006.88
2018-03-23T04:29:44.444Z,1006.84
2018-03-23T04:30:44.500Z,1006.86
2018-03-23T04:31:44.567Z,1006.80
2018-03-23T04:32:44.628Z,1006.80
2018-03-23T04:33:44.683Z,1006.77
2018-03-23T04:34:44.748Z,1006.80
2018-03-23T04:35:44.800Z,1006.81
2018-03-23T04:36:44.872Z,1006.78
2018-03-23T04:37:44.928Z,1006.76
2018-03-23T04:38:44.984Z,1006.74
2018-03-23T04:39:45.062Z,1006.77
2018-03-23T04:40:45.108Z,1006.76
2018-03-23T04:41:45.468Z,1006.75
2018-03-23T04:42:45.224Z,1006.78
2018-03-23T04:43:45.284Z,1006.74
2018-03-23T04:44:45.349Z,1006.72
2018-03-23T04:45:45.404Z,1006.74
2018-03-23T04:46:45.468Z,1006.72
2018-03-23T04:47:45.632Z,1006.71
2018-03-23T04:48:45.592Z,1006.68
2018-03-23T04:49:45.652Z,1006.63
2018-03-23T04:50:45.708Z,1006.60
2018-03-23T04:51:45.776Z,1006.63
2018-03-23T04:52:45.840Z,1006.61
2018-03-23T04:53:45.900Z,1006.61
2018-03-23T04:54:45.949Z,1006.59
2018-03-23T04:55:46.012Z,1006.59
2018-03-23T04:56:46.068Z,1006.59
2018-03-23T04:57:46.245Z,1006.58
2018-03-23T04:58:46.193Z,1006.60
2018-03-23T04:59:46.257Z,1006.57
2018-03-23T05:00:46.313Z,1006.61
2018-03-23T05:01:46.377Z,1006.59
2018-03-23T05:02:46.441Z,1006.57
2018-03-23T05:03:46.497Z,1006.54
2018-03-23T05:04:46.557Z,1006.54
2018-03-23T05:05:46.613Z,1006.57
2018-03-23T05:06:46.673Z,1006.52
2018-03-23T05:07:46.741Z,1006.50
2018-03-23T05:08:46.805Z,1006.49
2018-03-23T05:09:46.861Z,1006.52
2018-03-23T05:10:46.918Z,1006.51
2018-03-23T05:11:46.977Z,1006.51
2018-03-23T05:12:47.049Z,1006.53
2018-03-23T05:13:47.114Z,1006.54
2018-03-23T05:14:47.158Z,1006.52
2018-03-23T05:15:47.229Z,1006.58
2018-03-23T05:16:47.277Z,1006.50
2018-03-23T05:17:47.345Z,1006.52
2018-03-23T05:18:47.406Z,1006.52
2018-03-23T05:19:47.465Z,1006.52
2018-03-23T05:20:47.522Z,1006.50
2018-03-23T05:21:47.582Z,1006.49
2018-03-23T05:22:47.650Z,1006.48
2018-03-23T05:23:47.713Z,1006.47
2018-03-23T05:24:47.807Z,1006.50
2018-03-23T05:25:47.822Z,1006.49
2018-03-23T05:26:47.884Z,1006.45
2018-03-23T05:27:47.958Z,1006.49
2018-03-23T05:28:48.018Z,1006.46
2018-03-23T05:29:48.070Z,1006.44
2018-03-23T05:30:48.130Z,1006.40
2018-03-23T05:31:48.190Z,1006.41
2018-03-23T05:32:48.362Z,1006.40
2018-03-23T05:33:48.314Z,1006.39
2018-03-23T05:34:48.372Z,1006.39
2018-03-23T05:35:48.454Z,1006.37
2018-03-23T05:36:48.494Z,1006.40
2018-03-23T05:37:48.583Z,1006.38
2018-03-23T05:38:48.621Z,1006.37
2018-03-23T05:39:48.966Z,1006.42
2018-03-23T05:40:49.452Z,1006.40
2018-03-23T05:41:48.791Z,1006.38
2018-03-23T05:42:48.855Z,1006.37
2018-03-23T05:43:48.923Z,1006.42
2018-03-23T05:44:48.971Z,1006.41
2018-03-23T05:45:49.030Z,1006.41
2018-03-23T05:46:49.090Z,1006.39
2018-03-23T05:47:49.182Z,1006.41
2018-03-23T05:48:49.215Z,1006.42
2018-03-23T05:49:49.299Z,1006.43
2018-03-23T05:50:49.335Z,1006.43
2018-03-23T05:51:49.444Z,1006.44
2018-03-23T05:52:49.467Z,1006.41
2018-03-23T05:53:49.519Z,1006.40
2018-03-23T05:54:49.579Z,1006.41
2018-03-23T05:55:49.635Z,1006.42
2018-03-23T05:56:49.711Z,1006.42
2018-03-23T05:57:49.763Z,1006.43
2018-03-23T05:58:49.819Z,1006.40
2018-03-23T05:59:49.891Z,1006.40
2018-03-23T06:00:49.935Z,1006.41
2018-03-23T06:01:50.020Z,1006.41
2018-03-23T06:02:50.108Z,1006.40
2018-03-23T06:03:50.127Z,1006.39
2018-03-23T06:04:50.183Z,1006.38
2018-03-23T06:05:50.240Z,1006.39
2018-03-23T06:06:50.303Z,1006.37
2018-03-23T06:07:50.384Z,1006.37
2018-03-23T06:08:50.450Z,1006.36
2018-03-23T06:09:50.475Z,1006.36
2018-03-23T06:10:50.540Z,1006.39
2018-03-23T06:11:50.604Z,1006.32
2018-03-23T06:12:50.663Z,1006.38
2018-03-23T06:13:50.732Z,1006.37
2018-03-23T06:14:50.795Z,1006.35
2018-03-23T06:15:50.848Z,1006.34
2018-03-23T06:16:50.896Z,1006.32
2018-03-23T06:17:50.980Z,1006.32
2018-03-23T06:18:51.032Z,1006.34
2018-03-23T06:19:51.084Z,1006.35
2018-03-23T06:20:51.144Z,1006.37
2018-03-23T06:21:51.200Z,1006.41
2018-03-23T06:22:51.300Z,1006.36
2018-03-23T06:23:51.760Z,1006.40
2018-03-23T06:24:51.393Z,1006.37
2018-03-23T06:25:51.460Z,1006.38
2018-03-23T06:26:51.512Z,1006.37
2018-03-23T06:27:51.608Z,1006.39
2018-03-23T06:28:51.645Z,1006.35
2018-03-23T06:29:51.820Z,1006.35
2018-03-23T06:30:51.752Z,1006.35
2018-03-23T06:31:51.820Z,1006.34
2018-03-23T06:32:51.861Z,1006.35
2018-03-23T06:33:53.476Z,1006.36
2018-03-23T06:34:51.996Z,1006.37
2018-03-23T06:35:52.048Z,1006.35
2018-03-23T06:36:52.125Z,1006.34
2018-03-23T06:37:52.164Z,1006.35
2018-03-23T06:38:52.224Z,1006.36
2018-03-23T06:39:52.400Z,1006.30
2018-03-23T06:40:52.429Z,1006.28
2018-03-23T06:41:52.408Z,1006.29
2018-03-23T06:42:52.517Z,1006.31
2018-03-23T06:43:52.530Z,1006.31
2018-03-23T06:44:52.617Z,1006.29
2018-03-23T06:45:52.718Z,1006.25
2018-03-23T06:46:52.705Z,1006.33
2018-03-23T06:47:52.765Z,1006.34
2018-03-23T06:48:52.821Z,1006.32
2018-03-23T06:49:52.901Z,1006.30
2018-03-23T06:50:52.977Z,1006.31
2018-03-23T06:51:53.009Z,1006.32
2018-03-23T06:52:53.089Z,1006.27
2018-03-23T06:53:53.141Z,1006.26
2018-03-23T06:54:53.349Z,1006.30
2018-03-23T06:55:53.257Z,1006.28
2018-03-23T06:56:53.325Z,1006.24
2018-03-23T06:57:53.381Z,1006.26
2018-03-23T06:58:53.449Z,1006.28
2018-03-23T06:59:53.593Z,1006.24
2018-03-23T07:00:53.571Z,1006.29
2018-03-23T07:01:53.653Z,1006.24
2018-03-23T07:02:53.670Z,1006.28
2018-03-23T07:03:53.746Z,1006.29
2018-03-23T07:04:53.802Z,1006.32
2018-03-23T07:05:53.858Z,1006.30
2018-03-23T07:06:53.918Z,1006.28
2018-03-23T07:07:53.970Z,1006.27
2018-03-23T07:08:54.030Z,1006.27
2018-03-23T07:09:54.093Z,1006.24
2018-03-23T07:10:54.174Z,1006.25
2018-03-23T07:11:54.962Z,1006.28
2018-03-23T07:12:54.275Z,1006.27
2018-03-23T07:13:54.341Z,1006.24
2018-03-23T07:14:54.399Z,1006.21
2018-03-23T07:15:54.462Z,1006.23
2018-03-23T07:16:54.522Z,1006.28
2018-03-23T07:17:54.574Z,1006.28
2018-03-23T07:18:54.642Z,1006.30
2018-03-23T07:19:54.709Z,1006.26
2018-03-23T07:20:54.762Z,1006.30
2018-03-23T07:21:54.833Z,1006.23
2018-03-23T07:22:54.874Z,1006.30
2018-03-23T07:23:54.946Z,1006.29
2018-03-23T07:24:55.006Z,1006.27
2018-03-23T07:25:55.103Z,1006.28
2018-03-23T07:26:55.150Z,1006.31
2018-03-23T07:27:55.187Z,1006.27
2018-03-23T07:28:55.246Z,1006.30
2018-03-23T07:29:55.295Z,1006.29
2018-03-23T07:30:55.394Z,1006.29
2018-03-23T07:31:55.462Z,1006.28
2018-03-23T07:32:55.507Z,1006.27
2018-03-23T07:33:55.557Z,1006.28
2018-03-23T07:34:55.599Z,1006.25
2018-03-23T07:35:55.691Z,1006.30
2018-03-23T07:36:55.748Z,1006.28
2018-03-23T07:37:55.791Z,1006.28
2018-03-23T07:38:55.843Z,1006.26
2018-03-23T07:39:55.919Z,1006.26
2018-03-23T07:40:55.967Z,1006.26
2018-03-23T07:41:56.047Z,1006.24
2018-03-23T07:42:56.087Z,1006.27
2018-03-23T07:43:56.143Z,1006.26
2018-03-23T07:44:56.207Z,1006.26
2018-03-23T07:45:56.299Z,1006.24
2018-03-23T07:46:56.339Z,1006.29
2018-03-23T07:47:56.387Z,1006.29
2018-03-23T07:48:56.451Z,1006.26
2018-03-23T07:49:56.515Z,1006.20
2018-03-23T07:50:56.618Z,1006.19
2018-03-23T07:51:56.646Z,1006.17
2018-03-23T07:52:56.790Z,1006.18
2018-03-23T07:53:56.819Z,1006.17
2018-03-23T07:54:57.483Z,1006.16
2018-03-23T07:55:58.663Z,1006.18
2018-03-23T07:56:57.052Z,1006.18
2018-03-23T07:57:57.040Z,1006.16
2018-03-23T07:58:57.140Z,1006.16
2018-03-23T07:59:57.192Z,1006.18
2018-03-23T08:00:57.276Z,1006.16
2018-03-23T08:01:57.352Z,1006.16
2018-03-23T08:02:57.420Z,1006.14
2018-03-23T08:03:57.391Z,1006.15
2018-03-23T08:04:57.485Z,1006.12
2018-03-23T08:05:57.528Z,1006.10
2018-03-23T08:06:57.620Z,1006.09
2018-03-23T08:07:57.792Z,1006.10
2018-03-23T08:08:57.684Z,1006.08
2018-03-23T08:09:57.752Z,1006.08
2018-03-23T08:10:57.991Z,1006.04
2018-03-23T08:11:58.100Z,1006.05
2018-03-23T08:12:58.008Z,1006.07
2018-03-23T08:13:58.000Z,1006.07
2018-03-23T08:14:58.220Z,1006.04
2018-03-23T08:15:58.252Z,1006.02
2018-03-23T08:16:58.181Z,1006.04
2018-03-23T08:17:58.460Z,1005.98
2018-03-23T08:18:58.494Z,1005.97
2018-03-23T08:19:58.336Z,1005.97
2018-03-23T08:20:58.394Z,1005.93
2018-03-23T08:21:58.472Z,1005.95
2018-03-23T08:22:58.729Z,1005.97
2018-03-23T08:23:58.624Z,1005.93
2018-03-23T08:24:58.644Z,1005.94
2018-03-23T08:25:58.721Z,1005.92
2018-03-23T08:26:58.824Z,1005.97
2018-03-23T08:27:58.829Z,1005.91
2018-03-23T08:28:58.909Z,1005.87
2018-03-23T08:29:58.976Z,1005.88
2018-03-23T08:30:59.002Z,1005.88
2018-03-23T08:31:59.073Z,1005.87
2018-03-23T08:33:00.025Z,1005.87
2018-03-23T08:33:59.213Z,1005.93
2018-03-23T08:34:59.257Z,1005.87
2018-03-23T08:35:59.433Z,1005.89
2018-03-23T08:36:59.444Z,1005.86
2018-03-23T08:37:59.434Z,1005.84
2018-03-23T08:38:59.698Z,1005.77
2018-03-23T08:39:59.585Z,1005.85
2018-03-23T08:40:59.930Z,1005.82
2018-03-23T08:41:59.765Z,1005.79
2018-03-23T08:42:59.769Z,1005.82
2018-03-23T08:43:59.807Z,1005.80
2018-03-23T08:44:59.926Z,1005.81
2018-03-23T08:45:59.925Z,1005.77
2018-03-23T08:46:59.985Z,1005.77
2018-03-23T08:48:00.098Z,1005.77
2018-03-23T08:49:00.118Z,1005.75
2018-03-23T08:50:00.194Z,1005.72
2018-03-23T08:51:00.218Z,1005.73
2018-03-23T08:52:00.277Z,1005.72
2018-03-23T08:53:00.350Z,1005.75
2018-03-23T08:54:00.514Z,1005.75
2018-03-23T08:55:00.777Z,1005.72
2018-03-23T08:56:00.562Z,1005.73
2018-03-23T08:57:00.594Z,1005.75
2018-03-23T08:58:00.706Z,1005.73
2018-03-23T08:59:00.826Z,1005.74
2018-03-23T09:00:00.902Z,1005.73
2018-03-23T09:01:00.866Z,1005.76
2018-03-23T09:02:01.112Z,1005.77
2018-03-23T09:03:00.986Z,1005.74
2018-03-23T09:04:01.040Z,1005.79
2018-03-23T09:05:01.099Z,1005.78
2018-03-23T09:06:01.455Z,1005.76
2018-03-23T09:07:01.339Z,1005.81
2018-03-23T09:08:01.290Z,1005.76
2018-03-23T09:09:01.342Z,1005.75
2018-03-23T09:10:01.378Z,1005.69
2018-03-23T09:11:01.515Z,1005.73
2018-03-23T09:12:01.541Z,1005.73
2018-03-23T09:13:01.614Z,1005.66
2018-03-23T09:14:01.626Z,1005.65
2018-03-23T09:15:01.711Z,1005.67
2018-03-23T09:16:01.762Z,1005.67
2018-03-23T09:17:01.872Z,1005.62
2018-03-23T09:18:01.887Z,1005.60
2018-03-23T09:19:01.939Z,1005.57
2018-03-23T09:20:02.019Z,1005.52
2018-03-23T09:21:02.084Z,1005.48
2018-03-23T09:22:02.163Z,1005.47
2018-03-23T09:23:02.200Z,1005.46
2018-03-23T09:24:02.279Z,1005.48
2018-03-23T09:25:02.399Z,1005.45
2018-03-23T09:26:02.383Z,1005.39
2018-03-23T09:27:02.599Z,1005.42
2018-03-23T09:28:02.491Z,1005.48
2018-03-23T09:29:02.716Z,1005.41
2018-03-23T09:30:02.651Z,1005.40
2018-03-23T09:31:02.692Z,1005.39
2018-03-23T09:32:02.752Z,1005.38
2018-03-23T09:33:02.831Z,1005.36
2018-03-23T09:34:02.860Z,1005.28
2018-03-23T09:35:02.915Z,1005.29
2018-03-23T09:36:03.004Z,1005.29
2018-03-23T09:37:03.044Z,1005.30
2018-03-23T09:38:03.103Z,1005.31
2018-03-23T09:39:03.160Z,1005.27
2018-03-23T09:40:03.244Z,1005.25
2018-03-23T09:41:03.288Z,1005.24
2018-03-23T09:42:03.523Z,1005.19
2018-03-23T09:43:03.402Z,1005.20
2018-03-23T09:44:03.476Z,1005.18
2018-03-23T09:45:03.557Z,1005.16
2018-03-23T09:46:03.626Z,1005.12
2018-03-23T09:47:03.656Z,1005.19
2018-03-23T09:48:03.732Z,1005.15
2018-03-23T09:49:03.790Z,1005.16
2018-03-23T09:50:03.854Z,1005.15
2018-03-23T09:51:03.924Z,1005.11
2018-03-23T09:52:03.977Z,1005.10
2018-03-23T09:53:04.044Z,1005.10
2018-03-23T09:54:04.080Z,1005.12
2018-03-23T09:55:04.152Z,1005.07
2018-03-23T09:56:04.229Z,1005.06
2018-03-23T09:57:04.261Z,1005.07
2018-03-23T09:58:04.464Z,1005.04
2018-03-23T09:59:04.397Z,1005.03
2018-03-23T10:00:04.473Z,1004.97
2018-03-23T10:01:04.512Z,1004.94
2018-03-23T10:02:04.580Z,1004.96
2018-03-23T10:03:04.657Z,1004.91
2018-03-23T10:04:04.764Z,1004.90
2018-03-23T10:05:04.765Z,1004.90
2018-03-23T10:06:04.829Z,1004.91
2018-03-23T10:07:04.894Z,1004.86
2018-03-23T10:08:04.960Z,1004.82
2018-03-23T10:09:05.153Z,1004.85
2018-03-23T10:10:05.065Z,1004.83
2018-03-23T10:11:05.149Z,1004.86
2018-03-23T10:12:05.213Z,1004.85
2018-03-23T10:13:05.449Z,1004.89
2018-03-23T10:14:05.323Z,1004.84
2018-03-23T10:15:05.394Z,1004.84
2018-03-23T10:16:05.461Z,1004.80
2018-03-23T10:17:05.533Z,1004.79
2018-03-23T10:18:05.585Z,1004.78
2018-03-23T10:19:05.646Z,1004.77
2018-03-23T10:20:05.707Z,1004.75
2018-03-23T10:21:05.773Z,1004.74
2018-03-23T10:22:05.814Z,1004.73
2018-03-23T10:23:05.884Z,1004.71
2018-03-23T10:24:05.962Z,1004.73
2018-03-23T10:25:06.011Z,1004.68
2018-03-23T10:26:06.050Z,1004.70
2018-03-23T10:27:06.110Z,1004.68
2018-03-23T10:28:06.221Z,1004.67
2018-03-23T10:29:06.448Z,1004.65
2018-03-23T10:30:06.310Z,1004.62
2018-03-23T10:31:06.354Z,1004.58
2018-03-23T10:32:06.426Z,1004.57
2018-03-23T10:33:06.490Z,1004.53
2018-03-23T10:34:06.559Z,1004.55
2018-03-23T10:35:06.626Z,1004.50
2018-03-23T10:36:06.678Z,1004.49
2018-03-23T10:37:06.727Z,1004.51
2018-03-23T10:38:06.794Z,1004.51
2018-03-23T10:39:06.872Z,1004.52
2018-03-23T10:40:06.914Z,1004.52
2018-03-23T10:41:07.027Z,1004.47
2018-03-23T10:42:07.038Z,1004.45
2018-03-23T10:43:07.099Z,1004.46
2018-03-23T10:44:07.159Z,1004.47
2018-03-23T10:45:07.328Z,1004.45
2018-03-23T10:46:07.279Z,1004.43
2018-03-23T10:47:07.332Z,1004.40
2018-03-23T10:48:07.399Z,1004.37
2018-03-23T10:49:07.471Z,1004.41
2018-03-23T10:50:07.591Z,1004.38
2018-03-23T10:51:07.597Z,1004.33
2018-03-23T10:52:07.651Z,1004.35
2018-03-23T10:53:07.707Z,1004.34
2018-03-23T10:54:07.759Z,1004.35
2018-03-23T10:55:07.835Z,1004.36
2018-03-23T10:56:07.902Z,1004.35
2018-03-23T10:57:07.963Z,1004.38
2018-03-23T10:58:08.023Z,1004.39
2018-03-23T10:59:08.075Z,1004.38
2018-03-23T11:00:08.435Z,1004.28
2018-03-23T11:01:08.195Z,1004.25
2018-03-23T11:02:08.253Z,1004.24
2018-03-23T11:03:08.319Z,1004.23
2018-03-23T11:04:08.371Z,1004.16
2018-03-23T11:05:08.443Z,1004.15
2018-03-23T11:06:08.507Z,1004.18
2018-03-23T11:07:08.559Z,1004.19
2018-03-23T11:08:08.627Z,1004.18
2018-03-23T11:09:08.684Z,1004.14
2018-03-23T11:10:08.751Z,1004.17
2018-03-23T11:11:08.816Z,1004.13
2018-03-23T11:12:08.868Z,1004.11
2018-03-23T11:13:08.924Z,1004.15
2018-03-23T11:14:08.997Z,1004.11
2018-03-23T11:15:09.060Z,1004.11
2018-03-23T11:16:09.115Z,1004.13
2018-03-23T11:17:09.172Z,1004.08
2018-03-23T11:18:09.240Z,1004.08
2018-03-23T11:19:09.291Z,1004.06
2018-03-23T11:20:09.361Z,1004.08
2018-03-23T11:21:09.529Z,1004.07
2018-03-23T11:22:09.496Z,1004.03
2018-03-23T11:23:09.532Z,1004.01
2018-03-23T11:24:09.608Z,1003.99
2018-03-23T11:25:09.668Z,1003.98
2018-03-23T11:26:09.752Z,1003.98
2018-03-23T11:27:09.784Z,1003.96
2018-03-23T11:28:09.852Z,1003.90
2018-03-23T11:29:09.908Z,1003.90
2018-03-23T11:30:10.044Z,1003.87
2018-03-23T11:31:10.028Z,1003.84
2018-03-23T11:32:10.092Z,1003.84
2018-03-23T11:33:10.157Z,1003.82
2018-03-23T11:34:10.216Z,1003.78
2018-03-23T11:35:10.276Z,1003.81
2018-03-23T11:36:10.497Z,1003.74
2018-03-23T11:37:10.392Z,1003.77
2018-03-23T11:38:10.456Z,1003.78
2018-03-23T11:39:10.520Z,1003.76
2018-03-23T11:40:10.589Z,1003.74
2018-03-23T11:41:10.645Z,1003.73
2018-03-23T11:42:10.719Z,1003.74
2018-03-23T11:43:10.757Z,1003.73
2018-03-23T11:44:10.826Z,1003.69
2018-03-23T11:45:10.889Z,1003.69
2018-03-23T11:46:10.956Z,1003.71
2018-03-23T11:47:11.025Z,1003.64
2018-03-23T11:48:11.073Z,1003.60
2018-03-23T11:49:11.133Z,1003.63
2018-03-23T11:50:11.194Z,1003.53
2018-03-23T11:51:11.253Z,1003.54
2018-03-23T11:52:11.345Z,1003.53
2018-03-23T11:53:11.377Z,1003.55
2018-03-23T11:54:11.441Z,1003.53
2018-03-23T11:55:11.505Z,1003.49
2018-03-23T11:56:11.569Z,1003.49
2018-03-23T11:57:11.629Z,1003.47
2018-03-23T11:58:11.693Z,1003.51
2018-03-23T11:59:11.745Z,1003.49
2018-03-23T12:00:11.807Z,1003.53
2018-03-23T12:01:11.870Z,1003.47
2018-03-23T12:02:11.933Z,1003.44
2018-03-23T12:03:11.998Z,1003.42
2018-03-23T12:04:12.053Z,1003.44
2018-03-23T12:05:12.124Z,1003.40
2018-03-23T12:06:12.182Z,1003.36